Time;durP1;ratioP1;P1;durP2;ratioP2;P2;SDS_P1;SDS_P2;PMS_P1;PMS_P2;Temp;Humidity;BMP_temperature;BMP_pressure;BME280_temperature;BME280_humidity;BME280_pressure;Samples;Min_cycle;Max_cycle;Signal;HPM_P1;HPM_P2
2022/02/22 00:02:08;;;;;;;0.20;0.20;;;;;;;12.82;100.00;101557.72;4912201;29;20113;-49
2022/02/22 00:04:36;;;;;;;0.85;0.85;;;;;;;12.86;100.00;101553.63;4912584;29;20056;-50
2022/02/22 00:07:05;;;;;;;0.93;0.93;;;;;;;12.59;100.00;101572.16;4912252;29;20039;-46
2022/02/22 00:09:32;;;;;;;1.33;1.10;;;;;;;13.25;100.00;101571.09;4911781;29;20061;-49
2022/02/22 00:11:58;;;;;;;9.57;2.35;;;;;;;13.39;100.00;101565.81;4909538;29;20040;-50
2022/02/22 00:14:24;;;;;;;0.20;0.20;;;;;;;13.48;100.00;101560.09;4897804;29;20067;-49
2022/02/22 00:16:55;;;;;;;1.90;1.38;;;;;;;13.21;100.00;101569.81;4911486;29;20439;-51
2022/02/22 00:19:22;;;;;;;0.20;0.20;;;;;;;13.48;100.00;101570.84;4910601;29;20037;-50
2022/02/22 00:21:48;;;;;;;1.15;1.05;;;;;;;13.13;100.00;101576.16;4912445;29;20217;-48
2022/02/22 00:24:14;;;;;;;0.20;0.20;;;;;;;13.30;100.00;101582.06;4911382;29;20084;-49
2022/02/22 00:26:39;;;;;;;0.40;0.40;;;;;;;12.99;100.00;101571.69;4912132;29;20036;-51
2022/02/22 00:29:05;;;;;;;2.33;1.55;;;;;;;13.30;100.00;101582.06;4912206;29;20067;-46
2022/02/22 00:31:30;;;;;;;0.73;0.73;;;;;;;13.22;100.00;101578.69;4910480;29;20036;-50
2022/02/22 00:33:56;;;;;;;1.20;0.50;;;;;;;13.09;100.00;101582.09;4909842;29;20251;-53
2022/02/22 00:36:21;;;;;;;22.75;3.60;;;;;;;12.81;100.00;101581.06;4910371;29;20048;-50
2022/02/22 00:38:49;;;;;;;0.57;0.57;;;;;;;12.89;100.00;101588.97;4912868;29;20060;-51
2022/02/22 00:41:16;;;;;;;0.10;0.10;;;;;;;12.54;100.00;101601.41;4910810;29;20043;-49
2022/02/22 00:43:42;;;;;;;;;;;;;;;12.45;100.00;101614.09;4912364;29;20044;-49
2022/02/22 00:46:07;;;;;;;3.50;1.37;;;;;;;12.52;100.00;101619.56;4911291;29;19926;-49
2022/02/22 00:48:32;;;;;;;0.20;0.20;;;;;;;12.04;100.00;101615.47;4911115;29;20033;-50
2022/02/22 00:50:58;;;;;;;0.27;0.27;;;;;;;12.48;100.00;101622.63;4893245;29;20067;-50
2022/02/22 00:53:23;;;;;;;0.37;0.37;;;;;;;12.65;100.00;101626.91;4908715;29;20165;-48
2022/02/22 00:55:49;;;;;;;0.20;0.20;;;;;;;12.55;100.00;101625.34;4911437;29;20051;-48
2022/02/22 00:58:14;;;;;;;0.20;0.20;;;;;;;12.67;100.00;101638.28;4910445;29;20069;-47
2022/02/22 01:00:40;;;;;;;0.88;0.88;;;;;;;12.46;100.00;101634.56;4895406;29;20036;-51
2022/02/22 01:03:05;;;;;;;0.20;0.20;;;;;;;12.56;100.00;101636.94;4911580;29;20040;-48
2022/02/22 01:05:31;;;;;;;0.60;0.60;;;;;;;12.26;100.00;101639.69;4910272;29;20044;-48
2022/02/22 01:07:56;;;;;;;0.10;0.10;;;;;;;12.64;100.00;101642.19;4911448;29;20075;-49
2022/02/22 01:10:22;;;;;;;0.20;0.20;;;;;;;13.09;100.00;101638.50;4910582;29;20084;-49
2022/02/22 01:12:48;;;;;;;46.38;2.00;;;;;;;13.04;100.00;101644.47;4908740;29;20052;-49
2022/02/22 01:15:13;;;;;;;2.73;2.00;;;;;;;12.85;100.00;101646.75;4908591;29;20041;-50
2022/02/22 01:17:39;;;;;;;1.95;1.85;;;;;;;12.70;100.00;101644.13;4907794;29;20048;-46
2022/02/22 01:20:08;;;;;;;2.33;1.70;;;;;;;12.54;100.00;101639.78;4905907;29;20095;-52
2022/02/22 01:22:35;;;;;;;4.07;3.22;;;;;;;12.60;100.00;101643.59;4909158;29;20057;-51
2022/02/22 01:25:00;;;;;;;6.35;1.65;;;;;;;12.56;100.00;101636.94;4911672;29;20059;-47
2022/02/22 01:27:25;;;;;;;1.83;1.63;;;;;;;12.79;100.00;101646.69;4893328;29;20101;-46
2022/02/22 01:29:51;;;;;;;5.38;3.15;;;;;;;12.85;100.00;101645.91;4910051;29;20096;-47
2022/02/22 01:32:17;;;;;;;1.20;1.10;;;;;;;12.40;100.00;101643.34;4910330;29;20064;-49
2022/02/22 01:34:42;;;;;;;1.47;1.37;;;;;;;12.45;100.00;101652.47;4909206;29;20183;-49
2022/02/22 01:37:08;;;;;;;5.25;2.45;;;;;;;12.77;100.00;101655.75;4894734;29;20064;-48
2022/02/22 01:39:33;;;;;;;0.20;0.20;;;;;;;12.83;100.00;101650.63;4908751;29;20041;-49
2022/02/22 01:42:01;;;;;;;10.40;0.90;;;;;;;12.27;100.00;101660.13;4910704;29;20060;-47
2022/02/22 01:44:26;;;;;;;2.22;1.85;;;;;;;12.67;100.00;101665.94;4909349;29;20276;-53
2022/02/22 01:46:57;;;;;;;0.10;0.10;;;;;;;12.15;100.00;101651.72;4911977;29;20052;-48
2022/02/22 01:49:23;;;;;;;0.20;0.20;;;;;;;12.28;100.00;101645.69;4909206;29;20037;-48
2022/02/22 01:51:49;;;;;;;0.55;0.55;;;;;;;12.11;100.00;101642.34;4909282;29;20142;-46
2022/02/22 01:54:14;;;;;;;0.20;0.20;;;;;;;12.55;100.00;101640.63;4907984;29;20072;-50
2022/02/22 01:56:40;;;;;;;2.13;1.57;;;;;;;12.83;100.00;101648.81;4910906;29;20063;-51
2022/02/22 01:59:06;;;;;;;7.35;2.08;;;;;;;12.16;100.00;101648.81;4907360;29;20036;-47
2022/02/22 02:01:31;;;;;;;0.20;0.20;;;;;;;12.46;100.00;101661.38;4908131;29;20061;-48
2022/02/22 02:03:57;;;;;;;0.20;0.20;;;;;;;12.03;100.00;101646.00;4910426;29;20048;-46
2022/02/22 02:06:22;;;;;;;3.43;1.50;;;;;;;12.15;100.00;101644.47;4909017;29;20071;-48
2022/02/22 02:08:48;;;;;;;1.45;1.45;;;;;;;12.15;100.00;101652.53;4911170;29;20044;-47
2022/02/22 02:11:13;;;;;;;4.43;2.30;;;;;;;12.37;100.00;101660.66;4909604;29;20048;-48
2022/02/22 02:13:39;;;;;;;2.27;1.10;;;;;;;12.45;100.00;101657.84;4907592;29;20291;-48
2022/02/22 02:16:05;;;;;;;0.47;0.47;;;;;;;12.19;100.00;101656.50;4908614;29;20033;-47
2022/02/22 02:18:31;;;;;;;0.20;0.20;;;;;;;13.13;100.00;101643.28;4908665;29;20033;-50
2022/02/22 02:20:57;;;;;;;0.30;0.30;;;;;;;14.21;93.22;101654.81;4911167;29;20100;-49
2022/02/22 02:23:22;;;;;;;1.60;1.50;;;;;;;14.30;89.91;101664.38;4900758;29;20036;-47
2022/02/22 02:25:47;;;;;;;0.20;0.20;;;;;;;14.41;88.31;101652.22;4907165;29;20083;-51
2022/02/22 02:28:13;;;;;;;0.37;0.37;;;;;;;12.54;100.00;101655.91;4908092;29;20032;-49
2022/02/22 02:30:38;;;;;;;0.70;0.70;;;;;;;12.33;100.00;101659.38;4911980;29;20036;-48
2022/02/22 02:33:04;;;;;;;1.13;1.13;;;;;;;11.95;100.00;101656.75;4914702;29;20032;-48
2022/02/22 02:35:31;;;;;;;3.83;3.53;;;;;;;12.09;100.00;101658.63;4912606;29;20067;-47
2022/02/22 02:37:56;;;;;;;6.20;2.25;;;;;;;11.90;100.00;101660.81;4912249;29;20063;-50
2022/02/22 02:40:22;;;;;;;0.10;0.10;;;;;;;12.00;100.00;101662.41;4912053;29;20033;-48
2022/02/22 02:42:47;;;;;;;0.30;0.30;;;;;;;12.37;100.00;101651.78;4914762;29;20048;-47
2022/02/22 02:45:13;;;;;;;0.80;0.80;;;;;;;11.69;100.00;101637.44;4912279;29;20354;-50
2022/02/22 02:47:38;;;;;;;0.47;0.47;;;;;;;12.01;100.00;101639.97;4913232;29;20048;-46
2022/02/22 02:50:05;;;;;;;0.20;0.20;;;;;;;11.70;100.00;101648.97;4911480;29;20036;-50
2022/02/22 02:52:31;;;;;;;14.57;2.70;;;;;;;12.27;100.00;101644.03;4912579;29;20033;-50
2022/02/22 02:54:57;;;;;;;0.20;0.20;;;;;;;11.70;100.00;101641.78;4912875;29;20056;-48
2022/02/22 02:57:22;;;;;;;0.22;0.22;;;;;;;12.25;100.00;101648.75;4911381;29;20033;-46
2022/02/22 02:59:48;;;;;;;3.83;2.07;;;;;;;12.27;100.00;101644.03;4913173;29;20056;-53
2022/02/22 03:02:14;;;;;;;5.77;2.40;;;;;;;12.20;100.00;101649.31;4912262;29;20068;-52
2022/02/22 03:04:39;;;;;;;21.50;2.10;;;;;;;11.94;100.00;101655.09;4913055;29;20349;-52
2022/02/22 03:07:04;;;;;;;0.20;0.20;;;;;;;12.09;100.00;101652.44;4913260;29;20060;-48
2022/02/22 03:09:30;;;;;;;0.20;0.20;;;;;;;11.80;100.00;101648.69;4891976;29;20147;-51
2022/02/22 03:11:56;;;;;;;0.57;0.57;;;;;;;12.12;100.00;101654.78;4915654;29;20048;-50
2022/02/22 03:14:21;;;;;;;4.47;1.90;;;;;;;11.89;100.00;101645.75;4906457;29;20044;-47
2022/02/22 03:16:47;;;;;;;0.20;0.20;;;;;;;12.03;100.00;101648.66;4913589;29;20061;-48
2022/02/22 03:19:14;;;;;;;0.20;0.20;;;;;;;12.12;100.00;101657.44;4912670;29;20032;-47
2022/02/22 03:21:40;;;;;;;0.40;0.40;;;;;;;12.07;100.00;101649.94;4906582;29;20113;-47
2022/02/22 03:24:05;;;;;;;0.20;0.20;;;;;;;11.71;100.00;101658.66;4917510;29;20044;-52
2022/02/22 03:26:31;;;;;;;3.08;2.83;;;;;;;12.39;100.00;101661.28;4907286;29;20109;-50
2022/02/22 03:28:58;;;;;;;39.70;2.27;;;;;;;12.05;100.00;101657.34;4912103;29;20040;-51
2022/02/22 03:31:24;;;;;;;4.70;1.95;;;;;;;12.32;100.00;101655.03;4902013;29;20037;-49
2022/02/22 03:33:52;;;;;;;0.80;0.80;;;;;;;12.17;100.00;101666.59;4917332;29;20052;-51
2022/02/22 03:36:22;;;;;;;0.10;0.10;;;;;;;12.27;100.00;101676.22;4905264;29;20067;-48
2022/02/22 03:38:48;;;;;;;0.85;0.85;;;;;;;12.33;100.00;101670.09;4920372;29;20243;-47
2022/02/22 03:41:15;;;;;;;0.20;0.20;;;;;;;12.13;100.00;101670.66;4919432;29;20060;-52
2022/02/22 03:43:41;;;;;;;3.55;2.58;;;;;;;12.66;100.00;101680.38;4904086;29;20040;-51
2022/02/22 03:46:06;;;;;;;2.77;2.63;;;;;;;12.51;100.00;101679.59;4918246;29;20096;-51
2022/02/22 03:48:32;;;;;;;0.33;0.33;;;;;;;12.84;100.00;101687.19;4906741;29;20279;-49
2022/02/22 03:50:57;;;;;;;1.90;1.30;;;;;;;12.87;100.00;101676.91;4920162;29;20097;-45
2022/02/22 03:53:22;;;;;;;2.70;1.33;;;;;;;12.74;100.00;101685.66;4914914;29;20052;-48
2022/02/22 03:55:49;;;;;;;1.25;1.08;;;;;;;11.99;100.00;101680.34;4905025;29;20067;-49
2022/02/22 03:58:14;;;;;;;1.77;1.67;;;;;;;12.11;100.00;101680.72;4919712;29;20040;-48
2022/02/22 04:00:40;;;;;;;0.30;0.30;;;;;;;12.01;100.00;101675.66;4897385;29;20069;-47
2022/02/22 04:03:08;;;;;;;4.78;2.75;;;;;;;12.13;100.00;101678.69;4911207;29;20044;-47
2022/02/22 04:05:34;;;;;;;1.52;1.42;;;;;;;11.65;100.00;101675.47;4906772;29;20045;-49
2022/02/22 04:07:59;;;;;;;6.23;2.00;;;;;;;12.16;100.00;101682.88;4916748;29;20047;-47
2022/02/22 04:10:25;;;;;;;1.17;1.17;;;;;;;11.67;100.00;101674.31;4905395;29;20032;-52
2022/02/22 04:12:51;;;;;;;2.53;2.42;;;;;;;11.09;100.00;101679.31;4912269;29;20287;-46
2022/02/22 04:15:17;;;;;;;1.53;1.50;;;;;;;11.57;100.00;101676.38;4912313;29;20044;-46
2022/02/22 04:17:42;;;;;;;0.23;0.23;;;;;;;11.88;100.00;101678.13;4905982;29;20348;-50
2022/02/22 04:20:10;;;;;;;0.60;0.60;;;;;;;11.94;100.00;101681.88;4916619;29;20044;-49
2022/02/22 04:22:35;;;;;;;7.13;2.85;;;;;;;12.02;100.00;101684.53;4906698;29;20047;-50
2022/02/22 04:25:02;;;;;;;1.98;1.85;;;;;;;11.54;100.00;101688.31;4911119;29;20436;-50
2022/02/22 04:27:27;;;;;;;0.17;0.17;;;;;;;11.30;100.00;101692.03;4913160;29;20044;-48
2022/02/22 04:29:53;;;;;;;0.20;0.20;;;;;;;11.62;100.00;101696.28;4904347;29;20044;-49
2022/02/22 04:32:18;;;;;;;79.80;5.93;;;;;;;11.65;100.00;101699.59;4915720;29;20040;-50
2022/02/22 04:34:44;;;;;;;3.97;3.58;;;;;;;11.87;100.00;101698.72;4907334;29;20063;-49
2022/02/22 04:37:15;;;;;;;98.23;3.50;;;;;;;11.36;100.00;101696.66;4909637;29;20069;-49
2022/02/22 04:39:41;;;;;;;2.17;2.08;;;;;;;10.85;100.00;101695.31;4914528;29;20047;-50
2022/02/22 04:42:07;;;;;;;;;;;;;;;11.39;100.00;101696.28;4904024;29;20041;-47
2022/02/22 04:44:32;;;;;;;0.87;0.87;;;;;;;11.87;100.00;101693.34;4914224;29;19922;-48
2022/02/22 04:46:58;;;;;;;0.93;0.93;;;;;;;11.58;100.00;101699.47;4908800;29;20103;-47
2022/02/22 04:49:23;;;;;;;1.27;1.27;;;;;;;11.60;100.00;101695.63;4907980;29;20041;-52
2022/02/22 04:51:48;;;;;;;0.20;0.20;;;;;;;11.90;100.00;101686.81;4884314;29;20061;-47
2022/02/22 04:54:14;;;;;;;0.30;0.30;;;;;;;11.73;100.00;101688.78;4891657;29;20387;-48
2022/02/22 04:56:40;;;;;;;0.40;0.40;;;;;;;11.38;100.00;101689.25;4892153;29;20037;-47
2022/02/22 04:59:06;;;;;;;0.80;0.77;;;;;;;11.29;100.00;101693.84;4894043;29;20052;-48
2022/02/22 05:01:31;;;;;;;4.33;3.93;;;;;;;11.61;100.00;101699.13;4895714;29;20353;-47
2022/02/22 05:03:57;;;;;;;2.30;2.15;;;;;;;11.51;100.00;101696.69;4891436;29;20043;-49
2022/02/22 05:06:22;;;;;;;0.20;0.20;;;;;;;11.26;100.00;101707.59;4892513;29;20096;-49
2022/02/22 05:08:48;;;;;;;3.35;3.03;;;;;;;11.53;100.00;101700.00;4888464;29;20049;-50
2022/02/22 05:11:14;;;;;;;0.20;0.20;;;;;;;11.40;100.00;101692.59;4891508;29;20061;-52
2022/02/22 05:13:39;;;;;;;0.23;0.23;;;;;;;11.00;100.00;101692.72;4886735;29;20361;-47
2022/02/22 05:16:06;;;;;;;1.13;1.03;;;;;;;11.56;100.00;101697.00;4896693;29;20045;-49
2022/02/22 05:18:31;;;;;;;;;;;;;;;11.64;100.00;101697.94;4886458;29;20044;-49
2022/02/22 05:20:57;;;;;;;0.10;0.10;;;;;;;11.32;100.00;101704.22;4895846;29;19995;-47
2022/02/22 05:23:28;;;;;;;3.27;2.57;;;;;;;11.26;100.00;101701.44;4892526;29;20036;-49
2022/02/22 05:25:54;;;;;;;0.17;0.17;;;;;;;11.10;100.00;101697.03;4884511;29;20048;-46
2022/02/22 05:28:22;;;;;;;6.00;1.67;;;;;;;11.43;100.00;101699.44;4896855;29;20037;-52
2022/02/22 05:30:53;;;;;;;0.20;0.20;;;;;;;11.36;100.00;101706.53;4888077;29;20060;-52
2022/02/22 05:33:20;;;;;;;0.10;0.10;;;;;;;11.61;100.00;101694.59;4889177;29;20045;-50
2022/02/22 05:35:47;;;;;;;12.10;2.33;;;;;;;11.31;100.00;101699.03;4895221;29;20134;-48
2022/02/22 05:38:12;;;;;;;0.60;0.60;;;;;;;11.21;100.00;101696.59;4897586;29;20109;-49
2022/02/22 05:40:38;;;;;;;1.47;1.37;;;;;;;11.31;100.00;101689.19;4894382;29;20041;-47
2022/02/22 05:43:04;;;;;;;0.20;0.20;;;;;;;11.54;100.00;101692.81;4880951;29;20037;-51
2022/02/22 05:45:30;;;;;;;16.98;2.33;;;;;;;11.32;100.00;101684.63;4892688;29;20056;-50
2022/02/22 05:47:57;;;;;;;0.20;0.20;;;;;;;11.14;100.00;101698.34;4883003;29;20041;-50
2022/02/22 05:50:23;;;;;;;0.20;0.20;;;;;;;11.29;100.00;101695.72;4899407;29;20102;-51
2022/02/22 05:52:49;;;;;;;1.98;1.75;;;;;;;11.39;100.00;101695.47;4892894;29;20068;-50
2022/02/22 05:55:14;;;;;;;0.20;0.20;;;;;;;10.96;100.00;101688.75;4904749;29;20060;-48
2022/02/22 05:57:40;;;;;;;0.77;0.77;;;;;;;11.64;100.00;101695.25;4901895;29;20044;-48
2022/02/22 06:00:07;;;;;;;0.28;0.28;;;;;;;11.07;100.00;101683.97;4917087;29;20351;-47
2022/02/22 06:02:33;;;;;;;1.25;1.25;;;;;;;11.17;100.00;101692.63;4903856;29;20040;-50
2022/02/22 06:04:59;;;;;;;1.37;1.30;;;;;;;11.15;100.00;101700.81;4912697;29;20101;-51
2022/02/22 06:07:25;;;;;;;0.20;0.20;;;;;;;11.21;100.00;101698.47;4914625;29;20275;-49
2022/02/22 06:09:50;;;;;;;0.20;0.20;;;;;;;11.21;100.00;101693.91;4907611;29;20049;-45
2022/02/22 06:12:16;;;;;;;1.17;1.10;;;;;;;11.31;100.00;101704.41;4918768;29;20509;-52
2022/02/22 06:14:41;;;;;;;0.20;0.20;;;;;;;11.21;100.00;101706.50;4909121;29;20043;-49
2022/02/22 06:17:07;;;;;;;0.93;0.93;;;;;;;11.05;100.00;101694.88;4913098;29;20037;-47
2022/02/22 06:19:32;;;;;;;0.50;0.50;;;;;;;10.90;100.00;101697.47;4915788;29;20040;-50
2022/02/22 06:21:58;;;;;;;4.95;3.08;;;;;;;11.38;100.00;101689.25;4906224;29;20045;-48
2022/02/22 06:24:24;;;;;;;0.30;0.30;;;;;;;10.99;100.00;101691.06;4918800;29;20040;-46
2022/02/22 06:26:50;;;;;;;1.83;1.60;;;;;;;10.95;100.00;101686.22;4909952;29;20047;-52
2022/02/22 06:29:16;;;;;;;0.20;0.20;;;;;;;10.85;100.00;101687.28;4911943;29;20036;-50
2022/02/22 06:31:41;;;;;;;2.10;1.98;;;;;;;11.39;100.00;101684.75;4916088;29;20052;-47
2022/02/22 06:34:07;;;;;;;0.20;0.20;;;;;;;11.12;100.00;101690.47;4906024;29;20041;-51
2022/02/22 06:36:33;;;;;;;0.43;0.43;;;;;;;11.05;100.00;101692.19;4917396;29;20033;-50
2022/02/22 06:38:59;;;;;;;5.63;3.30;;;;;;;10.78;100.00;101694.38;4910321;29;20306;-51
2022/02/22 06:41:24;;;;;;;0.45;0.45;;;;;;;10.27;100.00;101698.25;4910597;29;20592;-47
2022/02/22 06:43:50;;;;;;;0.20;0.20;;;;;;;10.10;100.00;101697.44;4917335;29;20060;-50
2022/02/22 06:46:15;;;;;;;0.20;0.20;;;;;;;10.50;100.00;101697.53;4905785;29;20052;-52
2022/02/22 06:48:40;;;;;;;2.90;2.23;;;;;;;10.31;100.00;101704.06;4916019;29;20041;-51
2022/02/22 06:51:07;;;;;;;0.30;0.30;;;;;;;10.66;100.00;101701.97;4911168;29;20048;-49
2022/02/22 06:53:34;;;;;;;0.38;0.38;;;;;;;10.73;100.00;101700.25;4908881;29;20047;-52
2022/02/22 06:56:00;;;;;;;0.47;0.47;;;;;;;10.75;100.00;101695.53;4917848;29;20069;-51
2022/02/22 06:58:26;;;;;;;0.30;0.30;;;;;;;11.21;100.00;101699.28;4906082;29;20044;-47
2022/02/22 07:00:52;;;;;;;0.20;0.20;;;;;;;10.96;100.00;101701.31;4917300;29;20044;-47
2022/02/22 07:03:18;;;;;;;0.97;0.90;;;;;;;10.40;100.00;101692.38;4920847;29;20041;-49
2022/02/22 07:05:44;;;;;;;0.20;0.20;;;;;;;10.39;100.00;101688.00;4907485;29;20040;-49
2022/02/22 07:08:10;;;;;;;0.60;0.60;;;;;;;10.60;100.00;101687.44;4917572;29;20040;-48
2022/02/22 07:10:35;;;;;;;0.30;0.30;;;;;;;10.92;100.00;101684.75;4906597;29;20032;-47
2022/02/22 07:13:01;;;;;;;0.47;0.47;;;;;;;10.51;100.00;101676.94;4912821;29;20036;-46
2022/02/22 07:15:26;;;;;;;0.20;0.20;;;;;;;10.43;100.00;101686.69;4912533;29;20040;-51
2022/02/22 07:17:53;;;;;;;3.28;3.03;;;;;;;11.27;100.00;101679.81;4906174;29;20040;-51
2022/02/22 07:20:20;;;;;;;0.68;0.68;;;;;;;13.29;100.00;101684.34;4917018;29;20076;-49
2022/02/22 07:22:46;;;;;;;1.08;1.08;;;;;;;12.55;100.00;101678.19;4919481;29;20048;-47
2022/02/22 07:25:13;;;;;;;2.60;2.10;;;;;;;13.23;100.00;101680.56;4920429;29;20103;-47
2022/02/22 07:27:40;;;;;;;0.85;0.85;;;;;;;13.27;100.00;101672.97;4907732;29;20069;-52
2022/02/22 07:30:07;;;;;;;1.23;1.20;;;;;;;13.53;100.00;101680.44;4913585;29;20059;-46
2022/02/22 07:32:34;;;;;;;0.20;0.20;;;;;;;13.43;100.00;101666.53;4887472;29;20029;-48
2022/02/22 07:35:00;;;;;;;6.05;1.65;;;;;;;13.30;100.00;101662.66;4910907;29;20035;-47
2022/02/22 07:37:25;;;;;;;0.63;0.63;;;;;;;12.44;100.00;101666.91;4911294;29;20040;-50
2022/02/22 07:39:52;;;;;;;1.55;1.48;;;;;;;12.64;100.00;101671.69;4904779;29;20048;-51
2022/02/22 07:42:17;;;;;;;0.63;0.63;;;;;;;12.74;100.00;101666.03;4915190;29;20067;-50
2022/02/22 07:44:43;;;;;;;0.97;0.97;;;;;;;12.93;100.00;101664.59;4904502;29;20051;-47
2022/02/22 07:47:08;;;;;;;0.85;0.85;;;;;;;13.62;100.00;101649.72;4909275;29;20032;-53
2022/02/22 07:49:34;;;;;;;0.30;0.30;;;;;;;13.20;100.00;101638.00;4899568;29;20061;-50
2022/02/22 07:52:00;;;;;;;0.55;0.55;;;;;;;14.21;100.00;101644.06;4898659;29;20045;-51
2022/02/22 07:54:25;;;;;;;0.30;0.30;;;;;;;14.32;100.00;101646.16;4914085;29;20057;-50
2022/02/22 07:56:51;;;;;;;0.20;0.20;;;;;;;14.14;100.00;101635.97;4905706;29;20070;-49
2022/02/22 07:59:16;;;;;;;0.57;0.57;;;;;;;13.83;100.00;101633.72;4909408;29;20045;-49
2022/02/22 08:01:41;;;;;;;1.17;1.07;;;;;;;13.46;100.00;101631.19;4913155;29;20040;-52
2022/02/22 08:04:07;;;;;;;0.35;0.35;;;;;;;13.47;100.00;101627.50;4903231;29;20060;-49
2022/02/22 08:06:33;;;;;;;0.63;0.63;;;;;;;13.94;100.00;101626.94;4919168;29;20100;-52
2022/02/22 08:08:58;;;;;;;0.20;0.20;;;;;;;13.84;100.00;101625.47;4911824;29;20063;-52
2022/02/22 08:11:26;;;;;;;0.20;0.20;;;;;;;14.21;100.00;101611.78;4900667;29;20040;-47
2022/02/22 08:13:53;;;;;;;0.20;0.20;;;;;;;14.16;100.00;101609.69;4914502;29;20119;-52
2022/02/22 08:16:18;;;;;;;4.47;2.10;;;;;;;13.99;100.00;101611.03;4903325;29;20047;-50
2022/02/22 08:18:44;;;;;;;1.03;0.83;;;;;;;14.66;100.00;101615.84;4913432;29;20121;-51
2022/02/22 08:21:09;;;;;;;12.30;0.80;;;;;;;13.64;100.00;101624.50;4908740;29;20109;-50
2022/02/22 08:23:34;;;;;;;9.53;2.47;;;;;;;14.27;100.00;101620.88;4907083;29;20052;-48
2022/02/22 08:26:04;;;;;;;9.65;3.75;;;;;;;14.43;100.00;101617.84;4915244;29;20088;-47
2022/02/22 08:28:30;;;;;;;2.53;1.15;;;;;;;14.60;100.00;101621.00;4903040;29;20041;-53
2022/02/22 08:30:56;;;;;;;0.20;0.20;;;;;;;14.00;100.00;101610.84;4918803;29;20061;-45
2022/02/22 08:33:22;;;;;;;0.82;0.82;;;;;;;15.08;100.00;101613.84;4908663;29;20041;-52
2022/02/22 08:35:47;;;;;;;0.23;0.23;;;;;;;14.32;100.00;101602.31;4913849;29;20050;-49
2022/02/22 08:38:13;;;;;;;1.10;1.10;;;;;;;14.45;100.00;101602.34;4917365;29;20360;-49
2022/02/22 08:40:39;;;;;;;0.40;0.40;;;;;;;14.46;100.00;101597.78;4904425;29;20033;-50
2022/02/22 08:43:04;;;;;;;1.42;1.38;;;;;;;14.49;100.00;101598.19;4918113;29;20056;-51
2022/02/22 08:45:30;;;;;;;1.17;1.07;;;;;;;14.54;100.00;101584.13;4898628;29;20045;-51
2022/02/22 08:47:55;;;;;;;3.53;1.40;;;;;;;14.88;100.00;101568.91;4899694;29;20343;-53
2022/02/22 08:50:23;;;;;;;2.63;1.27;;;;;;;15.14;100.00;101577.19;4915372;29;20104;-50
2022/02/22 08:52:48;;;;;;;9.07;1.45;;;;;;;15.16;100.00;101578.63;4905370;29;20052;-47
2022/02/22 08:55:14;;;;;;;0.10;0.10;;;;;;;14.60;100.00;101569.03;4908977;29;20053;-52
2022/02/22 08:57:39;;;;;;;0.90;0.90;;;;;;;15.01;100.00;101568.09;4899758;29;20041;-51
2022/02/22 09:00:10;;;;;;;0.30;0.30;;;;;;;15.18;100.00;101575.72;4914632;29;20041;-54
2022/02/22 09:02:37;;;;;;;0.40;0.40;;;;;;;14.67;100.00;101569.06;4897672;29;20037;-51
2022/02/22 09:05:03;;;;;;;0.10;0.10;;;;;;;14.47;100.00;101575.22;4907008;29;20108;-52
2022/02/22 09:07:29;;;;;;;0.43;0.43;;;;;;;15.15;100.00;101563.50;4907002;29;20041;-47
2022/02/22 09:09:55;;;;;;;1.30;1.20;;;;;;;14.90;100.00;101556.06;4913868;29;20063;-50
2022/02/22 09:12:20;;;;;;;0.55;0.50;;;;;;;16.43;83.82;101554.19;4902271;29;20033;-46
2022/02/22 09:14:46;;;;;;;1.03;0.93;;;;;;;16.01;85.02;101560.00;4912535;29;20045;-50
2022/02/22 09:17:11;;;;;;;4.90;1.23;;;;;;;16.52;82.73;101561.00;4907837;29;20040;-50
2022/02/22 09:19:37;;;;;;;0.75;0.75;;;;;;;16.36;86.04;101559.63;4906142;29;20040;-52
2022/02/22 09:22:03;;;;;;;1.43;1.33;;;;;;;16.57;80.42;101573.81;4913380;29;20052;-51
2022/02/22 09:24:28;;;;;;;1.50;1.40;;;;;;;15.71;91.14;101534.38;4914550;29;20036;-50
2022/02/22 09:26:54;;;;;;;0.63;0.63;;;;;;;14.68;100.00;101524.94;4905317;29;20041;-52
2022/02/22 09:29:19;;;;;;;0.50;0.50;;;;;;;14.71;100.00;101527.25;4917453;29;20116;-48
2022/02/22 09:31:48;;;;;;;0.20;0.20;;;;;;;15.03;100.00;101517.53;4904567;29;20291;-49
2022/02/22 09:34:15;;;;;;;2.65;1.95;;;;;;;14.89;100.00;101537.41;4914228;29;20100;-54
2022/02/22 09:36:40;;;;;;;1.80;1.70;;;;;;;15.29;100.00;101532.00;4903118;29;20059;-49
2022/02/22 09:39:06;;;;;;;5.97;2.33;;;;;;;15.54;94.53;101539.41;4908826;29;20041;-48
2022/02/22 09:41:34;;;;;;;1.37;1.37;;;;;;;15.86;90.15;101530.59;4898312;29;20101;-52
2022/02/22 09:44:00;;;;;;;0.40;0.40;;;;;;;15.30;96.42;101530.94;4898386;29;20041;-49
2022/02/22 09:46:28;;;;;;;1.37;1.30;;;;;;;15.61;91.28;101524.03;4916381;29;20036;-47
2022/02/22 09:48:53;;;;;;;5.78;1.65;;;;;;;15.30;93.22;101532.81;4911183;29;20029;-51
2022/02/22 09:51:18;;;;;;;30.83;2.57;;;;;;;14.89;94.33;101537.41;4908032;29;20084;-49
2022/02/22 09:53:44;;;;;;;0.40;0.40;;;;;;;15.33;91.66;101546.69;4904520;29;20665;-50
2022/02/22 09:56:10;;;;;;;3.42;1.77;;;;;;;15.23;93.11;101543.63;4914030;29;20036;-48
2022/02/22 09:58:36;;;;;;;1.25;1.20;;;;;;;15.44;91.88;101545.22;4901937;29;20092;-49
2022/02/22 10:01:02;;;;;;;0.30;0.30;;;;;;;15.54;88.89;101547.47;4909944;29;20052;-51
2022/02/22 10:03:28;;;;;;;0.70;0.70;;;;;;;15.34;91.39;101544.84;4898338;29;20060;-47
2022/02/22 10:05:57;;;;;;;1.77;1.63;;;;;;;15.93;85.48;101549.47;4912788;29;20064;-51
2022/02/22 10:08:41;;;;;;;2.33;1.23;;;;;;;15.19;96.94;101550.44;4915356;29;20036;-51
2022/02/22 10:11:08;;;;;;;0.75;0.75;;;;;;;15.75;91.94;101545.56;4905738;29;20061;-49
2022/02/22 10:13:34;;;;;;;0.20;0.20;;;;;;;15.67;89.70;101543.91;4906185;29;20131;-54
2022/02/22 10:16:12;;;;;;;26.20;3.03;;;;;;;15.39;97.44;101541.50;4912955;29;20032;-51
2022/02/22 10:18:47;;;;;;;1.65;1.27;;;;;;;16.35;86.17;101514.78;4898615;29;20048;-51
2022/02/22 10:21:12;;;;;;;0.22;0.22;;;;;;;15.49;92.27;101498.78;4898511;29;20041;-49
2022/02/22 10:23:38;;;;;;;0.57;0.57;;;;;;;15.48;93.36;101487.16;4898326;29;20033;-48
2022/02/22 10:26:03;;;;;;;0.70;0.70;;;;;;;15.96;87.37;101497.78;4898313;29;20041;-50
2022/02/22 10:28:29;;;;;;;40.67;3.42;;;;;;;16.25;82.05;101492.84;4913789;29;20044;-49
2022/02/22 10:30:55;;;;;;;1.13;1.13;;;;;;;15.55;88.29;101475.50;4887843;29;20096;-47
2022/02/22 10:33:23;;;;;;;12.35;3.50;;;;;;;15.58;90.72;101485.91;4908014;29;20063;-49
2022/02/22 10:35:56;;;;;;;1.57;1.47;;;;;;;14.96;94.12;101470.88;4911507;29;20055;-46
2022/02/22 10:38:28;;;;;;;0.10;0.10;;;;;;;15.33;92.16;101463.16;4901366;29;20315;-46
2022/02/22 10:41:13;;;;;;;1.95;1.85;;;;;;;15.59;86.06;101471.38;4911278;29;20284;-50
2022/02/22 10:43:42;;;;;;;1.73;1.63;;;;;;;15.88;83.86;101459.22;4898282;29;20093;-52
2022/02/22 10:46:11;;;;;;;1.35;1.25;;;;;;;16.45;79.76;101469.25;4913773;29;20049;-48
2022/02/22 10:48:39;;;;;;;1.20;1.10;;;;;;;16.22;81.35;101452.81;4901875;29;20036;-50
2022/02/22 10:51:16;;;;;;;1.40;1.40;;;;;;;16.09;82.01;101446.44;4919319;29;20275;-51
2022/02/22 10:53:47;;;;;;;0.20;0.20;;;;;;;16.06;84.91;101449.56;4908275;29;20324;-52
2022/02/22 10:56:16;;;;;;;8.70;2.53;;;;;;;16.18;86.75;101447.84;4902090;29;20041;-51
2022/02/22 10:58:45;;;;;;;0.20;0.20;;;;;;;16.25;85.07;101444.28;4916368;29;20288;-50
2022/02/22 11:01:13;;;;;;;1.80;1.70;;;;;;;16.30;86.21;101444.44;4909458;29;20350;-50
2022/02/22 11:03:45;;;;;;;18.07;1.60;;;;;;;15.66;95.99;101465.94;4908630;29;20375;-49
2022/02/22 11:06:12;;;;;;;0.47;0.47;;;;;;;15.63;100.00;101456.41;4916948;29;20275;-53
2022/02/22 11:08:45;;;;;;;0.73;0.73;;;;;;;15.55;100.00;101453.94;4901654;29;20276;-47
2022/02/22 11:11:15;;;;;;;1.55;1.50;;;;;;;15.66;100.00;101452.44;4909657;29;20283;-48
2022/02/22 11:13:41;;;;;;;1.07;1.07;;;;;;;14.89;100.00;101462.84;4908637;29;20086;-53
2022/02/22 11:16:08;;;;;;;0.83;0.83;;;;;;;15.17;100.00;101458.22;4916553;29;20275;-49